createdAt,value
2017-12-17T00:00:54.517Z,11.60
2017-12-17T00:03:22.049Z,12.80
2017-12-17T00:05:49.609Z,11.60
2017-12-17T00:08:17.151Z,11.30
2017-12-17T00:10:44.677Z,8.93
2017-12-17T00:13:12.187Z,8.60
2017-12-17T00:15:39.740Z,8.40
2017-12-17T00:18:07.271Z,8.63
2017-12-17T00:20:34.816Z,8.30
2017-12-17T00:23:02.366Z,8.10
2017-12-17T00:25:29.881Z,8.70
2017-12-17T00:27:57.422Z,9.93
2017-12-17T00:30:24.968Z,8.27
2017-12-17T00:32:52.507Z,8.50
2017-12-17T00:35:20.033Z,9.00
2017-12-17T00:37:47.556Z,7.90
2017-12-17T00:40:15.081Z,8.20
2017-12-17T00:42:42.601Z,8.27
2017-12-17T00:45:10.127Z,8.40
2017-12-17T00:47:37.661Z,9.57
2017-12-17T00:50:05.227Z,8.40
2017-12-17T00:52:32.750Z,8.50
2017-12-17T00:55:00.282Z,8.80
2017-12-17T00:57:27.849Z,7.87
2017-12-17T00:59:55.367Z,7.73
2017-12-17T01:02:22.902Z,6.87
2017-12-17T01:04:50.422Z,7.93
2017-12-17T01:07:17.941Z,8.30
2017-12-17T01:09:45.494Z,7.53
2017-12-17T01:12:13.035Z,8.10
2017-12-17T01:14:40.556Z,8.03
2017-12-17T01:17:08.088Z,7.60
2017-12-17T01:19:35.605Z,7.43
2017-12-17T01:22:03.120Z,7.10
2017-12-17T01:24:30.656Z,8.43
2017-12-17T01:26:58.207Z,8.27
2017-12-17T01:29:25.717Z,6.83
2017-12-17T01:31:53.240Z,7.80
2017-12-17T01:34:20.774Z,7.37
2017-12-17T01:36:48.324Z,7.00
2017-12-17T01:39:16.747Z,6.23
2017-12-17T01:41:44.263Z,8.13
2017-12-17T01:44:11.813Z,7.40
2017-12-17T01:46:39.400Z,6.70
2017-12-17T01:49:06.952Z,7.20
2017-12-17T01:51:34.473Z,7.57
2017-12-17T01:54:02.077Z,7.60
2017-12-17T01:56:29.623Z,8.47
2017-12-17T01:58:57.297Z,9.53
2017-12-17T02:01:24.840Z,7.93
2017-12-17T02:03:52.363Z,7.30
2017-12-17T02:06:19.888Z,7.87
2017-12-17T02:08:47.447Z,7.47
2017-12-17T02:11:14.965Z,8.20
2017-12-17T02:13:42.498Z,7.00
2017-12-17T02:16:10.167Z,6.27
2017-12-17T02:18:37.682Z,7.10
2017-12-17T02:21:05.207Z,7.00
2017-12-17T02:23:32.728Z,8.53
2017-12-17T02:26:00.246Z,8.17
2017-12-17T02:28:27.786Z,7.53
2017-12-17T02:30:55.328Z,6.80
2017-12-17T02:33:22.861Z,7.27
2017-12-17T02:35:50.383Z,6.87
2017-12-17T02:38:17.912Z,7.10
2017-12-17T02:40:45.430Z,6.47
2017-12-17T02:43:12.953Z,6.73
2017-12-17T02:45:40.447Z,6.90
2017-12-17T02:48:08.067Z,5.67
2017-12-17T02:50:35.584Z,5.40
2017-12-17T02:53:03.301Z,6.10
2017-12-17T02:55:30.812Z,5.20
2017-12-17T02:57:58.339Z,6.00
2017-12-17T03:00:25.856Z,4.83
2017-12-17T03:02:53.366Z,4.90
2017-12-17T03:05:20.897Z,5.27
2017-12-17T03:07:48.487Z,5.00
2017-12-17T03:10:16.096Z,5.00
2017-12-17T03:12:43.610Z,4.63
2017-12-17T03:15:11.118Z,4.30
2017-12-17T03:17:38.651Z,5.10
2017-12-17T03:20:06.173Z,4.90
2017-12-17T03:22:33.672Z,4.97
2017-12-17T03:25:01.204Z,4.47
2017-12-17T03:27:28.765Z,4.27
2017-12-17T03:29:56.283Z,4.67
2017-12-17T03:32:23.811Z,5.20
2017-12-17T03:34:51.342Z,4.43
2017-12-17T03:37:18.856Z,4.87
2017-12-17T03:39:46.368Z,5.23
2017-12-17T03:42:14.047Z,4.63
2017-12-17T03:44:41.578Z,5.70
2017-12-17T03:47:09.118Z,6.50
2017-12-17T03:49:36.639Z,5.90
2017-12-17T03:52:04.186Z,5.60
2017-12-17T03:54:31.731Z,5.47
2017-12-17T03:56:59.267Z,5.87
2017-12-17T03:59:26.791Z,6.33
2017-12-17T04:01:54.307Z,6.20
2017-12-17T04:04:21.851Z,5.47
2017-12-17T04:06:49.376Z,5.93
2017-12-17T04:09:16.897Z,5.87
2017-12-17T04:11:44.417Z,5.40
2017-12-17T04:14:11.932Z,5.17
2017-12-17T04:16:39.476Z,5.67
2017-12-17T04:19:07.003Z,4.60
2017-12-17T04:21:34.539Z,4.93
2017-12-17T04:24:02.074Z,5.17
2017-12-17T04:26:29.599Z,4.87
2017-12-17T04:28:57.112Z,4.87
2017-12-17T04:31:24.641Z,3.83
2017-12-17T04:33:52.177Z,4.83
2017-12-17T04:36:19.718Z,4.43
2017-12-17T04:38:47.242Z,4.60
2017-12-17T04:41:14.755Z,3.90
2017-12-17T04:43:42.296Z,3.57
2017-12-17T04:46:09.828Z,3.80
2017-12-17T04:48:37.346Z,4.20
2017-12-17T04:51:04.873Z,3.97
2017-12-17T04:53:32.383Z,3.93
2017-12-17T04:55:59.909Z,4.43
2017-12-17T04:58:27.443Z,3.73
2017-12-17T05:00:55.008Z,4.07
2017-12-17T05:03:22.540Z,4.33
2017-12-17T05:05:50.057Z,4.60
2017-12-17T05:08:17.577Z,3.67
2017-12-17T05:10:45.109Z,4.10
2017-12-17T05:13:12.627Z,4.10
2017-12-17T05:15:40.170Z,4.70
2017-12-17T05:18:07.686Z,4.57
2017-12-17T05:20:35.217Z,3.87
2017-12-17T05:23:02.747Z,4.47
2017-12-17T05:25:30.272Z,5.20
2017-12-17T05:27:57.816Z,4.90
2017-12-17T05:30:25.339Z,4.60
2017-12-17T05:32:52.863Z,5.57
2017-12-17T05:35:20.393Z,5.30
2017-12-17T05:37:47.923Z,5.10
2017-12-17T05:40:15.442Z,4.87
2017-12-17T05:42:42.967Z,4.77
2017-12-17T05:45:11.113Z,4.07
2017-12-17T05:47:38.668Z,4.10
2017-12-17T05:50:06.193Z,4.40
2017-12-17T05:52:33.709Z,5.43
2017-12-17T05:55:01.229Z,4.37
2017-12-17T05:57:28.744Z,3.80
2017-12-17T05:59:56.273Z,4.87
2017-12-17T06:02:23.799Z,4.60
2017-12-17T06:04:51.314Z,4.70
2017-12-17T06:07:18.866Z,4.73
2017-12-17T06:09:46.396Z,5.10
2017-12-17T06:12:13.932Z,4.87
2017-12-17T06:14:41.457Z,5.70
2017-12-17T06:17:08.993Z,5.90
2017-12-17T06:19:36.508Z,6.47
2017-12-17T06:22:04.177Z,6.40
2017-12-17T06:24:31.729Z,4.90
2017-12-17T06:26:59.253Z,5.00
2017-12-17T06:29:26.784Z,5.70
2017-12-17T06:31:54.303Z,4.73
2017-12-17T06:34:21.938Z,4.73
2017-12-17T06:36:49.457Z,5.30
2017-12-17T06:39:16.996Z,5.53
2017-12-17T06:41:44.522Z,4.03
2017-12-17T06:44:12.049Z,4.70
2017-12-17T06:46:39.573Z,5.20
2017-12-17T06:49:07.118Z,5.40
2017-12-17T06:51:34.689Z,5.10
2017-12-17T06:54:02.210Z,4.80
2017-12-17T06:56:29.744Z,4.97
2017-12-17T06:58:57.259Z,4.40
2017-12-17T07:01:24.775Z,4.17
2017-12-17T07:03:52.299Z,5.90
2017-12-17T07:06:19.825Z,5.50
2017-12-17T07:08:47.343Z,5.13
2017-12-17T07:11:14.868Z,5.73
2017-12-17T07:13:42.383Z,4.70
2017-12-17T07:16:09.924Z,5.00
2017-12-17T07:18:37.472Z,4.57
2017-12-17T07:21:05.023Z,5.23
2017-12-17T07:23:32.533Z,5.20
2017-12-17T07:26:00.082Z,5.50
2017-12-17T07:28:27.613Z,5.20
2017-12-17T07:30:55.157Z,4.50
2017-12-17T07:33:22.693Z,4.50
2017-12-17T07:35:50.220Z,4.10
2017-12-17T07:38:17.778Z,4.97
2017-12-17T07:40:45.305Z,4.13
2017-12-17T07:43:12.929Z,4.80
2017-12-17T07:45:40.458Z,6.97
2017-12-17T07:48:07.982Z,5.37
2017-12-17T07:50:35.488Z,5.00
2017-12-17T07:53:03.020Z,3.90
2017-12-17T07:55:30.544Z,4.27
2017-12-17T07:57:58.059Z,4.00
2017-12-17T08:00:25.559Z,3.70
2017-12-17T08:02:53.078Z,3.50
2017-12-17T08:05:20.619Z,4.23
2017-12-17T08:07:48.132Z,3.70
2017-12-17T08:10:15.668Z,4.00
2017-12-17T08:12:43.197Z,3.60
2017-12-17T08:15:10.729Z,3.67
2017-12-17T08:17:38.259Z,3.47
2017-12-17T08:20:05.794Z,4.43
2017-12-17T08:22:33.337Z,3.23
2017-12-17T08:25:00.857Z,2.93
2017-12-17T08:27:28.388Z,3.20
2017-12-17T08:29:55.921Z,2.47
2017-12-17T08:32:23.482Z,2.57
2017-12-17T08:34:51.012Z,3.30
2017-12-17T08:37:18.573Z,2.43
2017-12-17T08:39:46.132Z,2.90
2017-12-17T08:42:13.648Z,2.90
2017-12-17T08:44:41.216Z,2.20
2017-12-17T08:47:08.726Z,2.57
2017-12-17T08:49:36.267Z,1.97
2017-12-17T08:52:03.808Z,2.00
2017-12-17T08:54:31.329Z,2.23
2017-12-17T08:56:58.868Z,2.00
2017-12-17T08:59:26.428Z,2.80
2017-12-17T09:01:54.014Z,2.30
2017-12-17T09:04:21.532Z,2.50
2017-12-17T09:06:49.110Z,2.17
2017-12-17T09:09:16.660Z,2.20
2017-12-17T09:11:44.225Z,2.27
2017-12-17T09:14:11.764Z,2.20
2017-12-17T09:16:39.338Z,2.30
2017-12-17T09:19:06.865Z,2.23
2017-12-17T09:21:34.413Z,3.00
2017-12-17T09:24:01.958Z,4.20
2017-12-17T09:26:29.479Z,2.23
2017-12-17T09:28:57.065Z,3.40
2017-12-17T09:31:24.616Z,2.90
2017-12-17T09:33:52.154Z,2.40
2017-12-17T09:36:19.699Z,2.80
2017-12-17T09:38:47.236Z,2.97
2017-12-17T09:41:14.857Z,2.40
2017-12-17T09:43:42.388Z,2.50
2017-12-17T09:46:09.924Z,2.20
2017-12-17T09:48:37.464Z,1.50
2017-12-17T09:51:05.201Z,1.63
2017-12-17T09:53:32.739Z,1.80
2017-12-17T09:56:00.308Z,1.73
2017-12-17T09:58:27.856Z,1.60
2017-12-17T10:00:55.395Z,1.30
2017-12-17T10:03:22.906Z,1.17
2017-12-17T10:05:50.454Z,1.50
2017-12-17T10:08:17.993Z,1.23
2017-12-17T10:10:45.545Z,1.40
2017-12-17T10:13:13.079Z,1.73
2017-12-17T10:15:40.641Z,1.50
2017-12-17T10:18:08.171Z,1.00
2017-12-17T10:20:35.703Z,1.20
2017-12-17T10:23:03.471Z,1.30
2017-12-17T10:25:31.001Z,1.20
2017-12-17T10:27:58.690Z,0.80
2017-12-17T10:30:26.684Z,1.20
2017-12-17T10:32:54.310Z,1.30
2017-12-17T10:35:21.843Z,0.93
2017-12-17T10:37:49.503Z,1.20
2017-12-17T10:40:17.050Z,1.37
2017-12-17T10:42:44.587Z,1.30
2017-12-17T10:45:12.158Z,2.67
2017-12-17T10:47:39.735Z,1.20
2017-12-17T10:50:07.269Z,1.20
2017-12-17T10:52:35.011Z,0.97
2017-12-17T10:55:02.536Z,1.20
2017-12-17T10:57:30.078Z,0.80
2017-12-17T10:59:57.618Z,0.80
2017-12-17T11:02:25.135Z,1.00
2017-12-17T11:04:52.675Z,0.70
2017-12-17T11:07:20.209Z,1.07
2017-12-17T11:09:47.741Z,0.90
2017-12-17T11:12:15.390Z,1.00
2017-12-17T11:14:42.920Z,0.90
2017-12-17T11:17:10.503Z,0.93
2017-12-17T11:19:38.033Z,0.80
2017-12-17T11:22:05.569Z,0.80
2017-12-17T11:24:33.126Z,0.80
2017-12-17T11:27:00.650Z,1.43
2017-12-17T11:29:28.206Z,1.17
2017-12-17T11:31:55.759Z,1.10
2017-12-17T11:34:23.311Z,1.30
2017-12-17T11:36:50.858Z,1.23
2017-12-17T11:39:18.394Z,1.30
2017-12-17T11:41:45.938Z,0.87
2017-12-17T11:44:13.489Z,1.10
2017-12-17T11:46:41.006Z,0.80
2017-12-17T11:49:08.559Z,1.13
2017-12-17T11:51:36.084Z,0.93
2017-12-17T11:54:03.620Z,1.50
2017-12-17T11:56:31.145Z,1.10
2017-12-17T11:58:58.704Z,0.93
2017-12-17T12:01:26.326Z,0.90
2017-12-17T12:03:53.841Z,0.97
2017-12-17T12:06:21.420Z,1.10
2017-12-17T12:08:48.984Z,0.87
2017-12-17T12:11:16.511Z,1.10
2017-12-17T12:13:44.069Z,0.90
2017-12-17T12:16:11.599Z,0.70
2017-12-17T12:18:39.121Z,0.90
2017-12-17T12:21:06.659Z,1.27
2017-12-17T12:23:34.205Z,0.90
2017-12-17T12:26:01.731Z,1.40
2017-12-17T12:28:29.265Z,0.60
2017-12-17T12:30:56.824Z,0.80
2017-12-17T12:33:24.364Z,1.60
2017-12-17T12:35:51.891Z,0.90
2017-12-17T12:38:19.438Z,0.93
2017-12-17T12:40:46.982Z,0.77
2017-12-17T12:43:14.521Z,0.90
2017-12-17T12:45:42.059Z,0.90
2017-12-17T12:48:09.599Z,0.80
2017-12-17T12:50:37.131Z,1.10
2017-12-17T12:53:04.661Z,1.03
2017-12-17T12:55:32.206Z,0.93
2017-12-17T12:57:59.739Z,1.13
2017-12-17T13:00:27.256Z,1.00
2017-12-17T13:02:54.796Z,0.80
2017-12-17T13:05:22.335Z,0.80
2017-12-17T13:07:49.886Z,1.70
2017-12-17T13:10:17.426Z,0.70
2017-12-17T13:12:44.974Z,0.90
2017-12-17T13:15:12.519Z,1.03
2017-12-17T13:17:40.031Z,1.30
2017-12-17T13:20:07.545Z,1.00
2017-12-17T13:22:35.089Z,1.10
2017-12-17T13:25:02.615Z,1.00
2017-12-17T13:27:30.148Z,1.40
2017-12-17T13:29:57.660Z,1.20
2017-12-17T13:32:25.196Z,1.17
2017-12-17T13:34:52.896Z,0.80
2017-12-17T13:37:20.439Z,0.90
2017-12-17T13:39:47.956Z,1.13
2017-12-17T13:42:15.484Z,1.23
2017-12-17T13:44:43.037Z,1.10
2017-12-17T13:47:10.933Z,1.07
2017-12-17T13:49:38.485Z,4.20
2017-12-17T13:52:06.115Z,1.57
2017-12-17T13:54:33.645Z,1.30
2017-12-17T13:57:01.172Z,1.10
2017-12-17T13:59:28.715Z,2.83
2017-12-17T14:01:56.250Z,1.57
2017-12-17T14:04:23.834Z,1.97
2017-12-17T14:06:51.390Z,1.07
2017-12-17T14:09:19.032Z,1.70
2017-12-17T14:11:46.561Z,1.20
2017-12-17T14:14:14.117Z,2.03
2017-12-17T14:16:41.659Z,2.50
2017-12-17T14:19:09.253Z,3.60
2017-12-17T14:21:36.801Z,4.57
2017-12-17T14:24:04.329Z,2.27
2017-12-17T14:26:31.913Z,5.63
2017-12-17T14:28:59.452Z,4.13
2017-12-17T14:31:26.991Z,2.10
2017-12-17T14:33:54.552Z,13.67
2017-12-17T14:36:22.130Z,3.80
2017-12-17T14:39:01.240Z,2.40
2017-12-17T14:41:28.801Z,1.67
2017-12-17T14:43:56.581Z,1.43
2017-12-17T14:46:24.130Z,1.30
2017-12-17T14:48:51.678Z,1.17
2017-12-17T14:51:19.232Z,2.00
2017-12-17T14:53:46.760Z,1.40
2017-12-17T14:56:14.294Z,1.20
2017-12-17T14:58:41.857Z,1.67
2017-12-17T15:01:09.422Z,1.30
2017-12-17T15:03:41.585Z,1.70
2017-12-17T15:06:09.233Z,1.40
2017-12-17T15:08:36.793Z,1.70
2017-12-17T15:11:04.337Z,1.83
2017-12-17T15:13:32.011Z,1.63
2017-12-17T15:15:59.546Z,1.70
2017-12-17T15:18:27.115Z,1.80
2017-12-17T15:20:54.846Z,2.13
2017-12-17T15:23:22.370Z,2.47
2017-12-17T15:25:49.910Z,2.40
2017-12-17T15:28:17.445Z,2.40
2017-12-17T15:30:44.987Z,2.23
2017-12-17T15:33:12.547Z,1.50
2017-12-17T15:35:40.060Z,1.80
2017-12-17T15:38:07.606Z,1.83
2017-12-17T15:40:35.129Z,8.20
2017-12-17T15:43:02.679Z,14.30
2017-12-17T15:45:30.286Z,2.53
2017-12-17T15:47:57.804Z,1.90
2017-12-17T15:50:25.352Z,1.90
2017-12-17T15:52:53.023Z,1.47
2017-12-17T15:55:20.593Z,1.50
2017-12-17T15:57:48.135Z,1.97
2017-12-17T16:00:15.737Z,2.47
2017-12-17T16:02:43.285Z,1.87
2017-12-17T16:05:10.812Z,1.53
2017-12-17T16:07:38.344Z,2.00
2017-12-17T16:10:05.885Z,1.80
2017-12-17T16:12:33.485Z,1.43
2017-12-17T16:15:01.027Z,1.73
2017-12-17T16:17:28.556Z,1.63
2017-12-17T16:19:56.116Z,1.83
2017-12-17T16:22:23.672Z,2.23
2017-12-17T16:24:51.214Z,1.67
2017-12-17T16:27:18.791Z,2.10
2017-12-17T16:29:46.347Z,1.90
2017-12-17T16:32:13.908Z,1.90
2017-12-17T16:34:41.517Z,2.37
2017-12-17T16:37:09.083Z,1.97
2017-12-17T16:39:36.635Z,2.03
2017-12-17T16:42:04.273Z,2.30
2017-12-17T16:44:31.798Z,2.43
2017-12-17T16:46:59.353Z,2.90
2017-12-17T16:49:26.882Z,4.63
2017-12-17T16:51:54.417Z,2.80
2017-12-17T16:54:22.045Z,3.10
2017-12-17T16:56:49.586Z,2.60
2017-12-17T16:59:17.146Z,2.53
2017-12-17T17:01:44.693Z,2.20
2017-12-17T17:04:12.288Z,2.57
2017-12-17T17:06:39.812Z,2.30
2017-12-17T17:09:07.407Z,2.57
2017-12-17T17:11:34.959Z,2.60
2017-12-17T17:14:02.587Z,3.03
2017-12-17T17:16:30.121Z,3.30
2017-12-17T17:18:57.648Z,3.37
2017-12-17T17:21:25.196Z,3.20
2017-12-17T17:23:52.738Z,2.67
2017-12-17T17:26:20.271Z,2.93
2017-12-17T17:28:47.871Z,2.93
2017-12-17T17:31:15.404Z,2.37
2017-12-17T17:33:42.946Z,3.30
2017-12-17T17:36:10.528Z,3.20
2017-12-17T17:38:38.107Z,3.30
2017-12-17T17:41:05.633Z,2.90
2017-12-17T17:43:33.299Z,2.93
2017-12-17T17:46:00.882Z,2.80
2017-12-17T17:48:28.510Z,2.83
2017-12-17T17:50:56.167Z,2.20
2017-12-17T17:53:23.688Z,2.93
2017-12-17T17:55:51.211Z,2.87
2017-12-17T17:58:18.828Z,2.87
2017-12-17T18:00:46.368Z,2.77
2017-12-17T18:03:14.065Z,2.37
2017-12-17T18:05:41.651Z,2.70
2017-12-17T18:08:09.281Z,2.87
2017-12-17T18:10:36.907Z,3.10
2017-12-17T18:13:04.481Z,2.57
2017-12-17T18:15:32.019Z,2.43
2017-12-17T18:17:59.568Z,2.83
2017-12-17T18:20:27.102Z,2.43
2017-12-17T18:22:54.641Z,2.37
2017-12-17T18:25:22.360Z,2.83
2017-12-17T18:27:49.946Z,2.60
2017-12-17T18:30:17.622Z,2.90
2017-12-17T18:32:45.233Z,2.80
2017-12-17T18:35:12.786Z,3.00
2017-12-17T18:37:40.342Z,2.73
2017-12-17T18:40:07.867Z,2.53
2017-12-17T18:42:35.462Z,3.30
2017-12-17T18:45:03.063Z,3.17
2017-12-17T18:47:30.735Z,3.83
2017-12-17T18:49:58.275Z,3.23
2017-12-17T18:52:25.866Z,3.60
2017-12-17T18:54:53.621Z,3.80
2017-12-17T18:57:21.438Z,3.90
2017-12-17T18:59:49.372Z,3.60
2017-12-17T19:02:17.272Z,3.30
2017-12-17T19:04:44.906Z,3.10
2017-12-17T19:07:12.733Z,3.50
2017-12-17T19:09:40.396Z,3.57
2017-12-17T19:12:08.109Z,4.10
2017-12-17T19:14:36.032Z,4.00
2017-12-17T19:17:03.997Z,3.47
2017-12-17T19:19:31.578Z,4.00
2017-12-17T19:21:59.111Z,3.60
2017-12-17T19:24:27.105Z,3.63
2017-12-17T19:26:54.727Z,3.40
2017-12-17T19:29:22.247Z,5.10
2017-12-17T19:31:49.909Z,4.73
2017-12-17T19:34:17.446Z,3.90
2017-12-17T19:36:45.247Z,3.70
2017-12-17T19:39:13.053Z,3.87
2017-12-17T19:41:40.628Z,4.07
2017-12-17T19:44:08.200Z,4.27
2017-12-17T19:46:36.492Z,4.30
2017-12-17T19:49:04.543Z,5.27
2017-12-17T19:51:32.301Z,4.40
2017-12-17T19:54:00.026Z,4.70
2017-12-17T19:56:27.958Z,4.53
2017-12-17T19:58:55.817Z,5.10
2017-12-17T20:01:23.555Z,4.97
2017-12-17T20:03:51.380Z,5.60
2017-12-17T20:06:19.076Z,5.60
2017-12-17T20:08:46.879Z,4.87
2017-12-17T20:11:14.898Z,5.17
2017-12-17T20:13:42.786Z,5.13
2017-12-17T20:16:10.529Z,5.90
2017-12-17T20:18:38.626Z,4.63
2017-12-17T20:21:06.544Z,5.30
2017-12-17T20:23:34.649Z,5.43
2017-12-17T20:26:02.467Z,6.30
2017-12-17T20:28:30.822Z,5.80
2017-12-17T20:30:58.692Z,5.70
2017-12-17T20:33:26.447Z,6.20
2017-12-17T20:35:54.353Z,5.60
2017-12-17T20:38:22.238Z,6.03
2017-12-17T20:40:50.062Z,6.57
2017-12-17T20:43:17.814Z,5.97
2017-12-17T20:45:45.648Z,5.90
2017-12-17T20:48:13.633Z,15.97
2017-12-17T20:50:41.632Z,6.13
2017-12-17T20:53:09.592Z,6.07
2017-12-17T20:55:37.685Z,6.30
2017-12-17T20:58:05.722Z,5.47
2017-12-17T21:00:33.572Z,6.20
2017-12-17T21:03:01.341Z,5.73
2017-12-17T21:05:29.153Z,6.00
2017-12-17T21:07:56.733Z,5.50
2017-12-17T21:10:24.337Z,5.50
2017-12-17T21:12:52.106Z,6.00
2017-12-17T21:15:19.693Z,5.40
2017-12-17T21:17:47.288Z,5.20
2017-12-17T21:20:15.846Z,5.30
2017-12-17T21:22:43.356Z,4.77
2017-12-17T21:25:11.006Z,4.50
2017-12-17T21:27:38.546Z,5.27
2017-12-17T21:30:06.122Z,4.90
2017-12-17T21:32:33.782Z,4.67
2017-12-17T21:35:01.342Z,5.47
2017-12-17T21:37:28.925Z,5.07
2017-12-17T21:39:56.588Z,4.80
2017-12-17T21:42:24.126Z,5.00
2017-12-17T21:44:51.669Z,5.63
2017-12-17T21:47:19.206Z,5.03
2017-12-17T21:49:46.774Z,5.17
2017-12-17T21:52:14.297Z,5.00
2017-12-17T21:54:41.884Z,4.80
2017-12-17T21:57:09.415Z,5.80
2017-12-17T21:59:36.955Z,6.50
2017-12-17T22:02:04.483Z,5.13
2017-12-17T22:04:32.028Z,5.20
2017-12-17T22:06:59.581Z,4.87
2017-12-17T22:09:27.092Z,4.90
2017-12-17T22:11:54.647Z,5.40
2017-12-17T22:14:22.182Z,6.27
2017-12-17T22:16:49.722Z,5.57
2017-12-17T22:19:17.243Z,5.83
2017-12-17T22:21:44.794Z,5.40
2017-12-17T22:24:12.307Z,5.00
2017-12-17T22:26:39.842Z,5.70
2017-12-17T22:29:07.422Z,5.83
2017-12-17T22:31:34.959Z,6.43
2017-12-17T22:34:02.539Z,5.97
2017-12-17T22:36:30.061Z,5.40
2017-12-17T22:38:57.581Z,5.83
2017-12-17T22:41:25.107Z,5.40
2017-12-17T22:43:52.644Z,6.00
2017-12-17T22:46:20.189Z,5.80
2017-12-17T22:48:47.730Z,6.47
2017-12-17T22:51:15.261Z,6.47
2017-12-17T22:53:42.796Z,6.33
2017-12-17T22:56:10.420Z,5.43
2017-12-17T22:58:37.971Z,6.03
2017-12-17T23:01:05.492Z,5.70
2017-12-17T23:03:33.019Z,5.50
2017-12-17T23:06:00.552Z,5.60
2017-12-17T23:08:28.092Z,4.90
2017-12-17T23:10:55.626Z,6.00
2017-12-17T23:13:23.153Z,5.50
2017-12-17T23:15:50.694Z,6.13
2017-12-17T23:18:18.237Z,5.80
2017-12-17T23:20:45.764Z,5.27
2017-12-17T23:23:13.284Z,5.97
2017-12-17T23:25:40.809Z,5.60
2017-12-17T23:28:08.332Z,5.60
2017-12-17T23:30:37.802Z,5.60
2017-12-17T23:33:05.356Z,6.00
2017-12-17T23:35:32.872Z,5.27
2017-12-17T23:38:00.409Z,6.13
2017-12-17T23:40:27.964Z,6.70
2017-12-17T23:42:55.499Z,6.60
2017-12-17T23:45:23.072Z,6.40
2017-12-17T23:47:50.601Z,6.00
2017-12-17T23:50:18.114Z,5.77
2017-12-17T23:52:45.637Z,6.20
2017-12-17T23:55:13.159Z,5.60
2017-12-17T23:57:40.677Z,7.00
